Terminal Aerodrome Forecast
Issued by NWS Charleston, WV

Current Version | Previous Version | Graphics & Text | Print | Product List | Glossary On
Versions: 1 2 3 4 5 6 7 8 9 10 11 12 13 14 15 16 17 18 19 20 21 22 23 24 25 26 27 28
000
FTUS41 KRLX 171700
TAFCRW
TAF
KCRW 171738Z 1718/1818 VRB02KT P6SM SCT045 BKN070
     FM172000 VRB02KT P6SM VCTS BKN050CB
     FM180100 00000KT P6SM BKN050
     FM181000 VRB02KT 4SM SHRA BR VCTS OVC035CB
     FM181400 19004KT 2SM TSRA BR SCT007 OVC015CB=

USA.gov is the U.S. government's official web portal to all federal, state and local government web resources and services.